Hildegaard — C6QU3 — position and weather

sailwx.info

Track history (hours):
 
Tides and Currents Weather Stations Pressure Air Temp Water Temp Dewpoint Dewpoint Depression Visibility Wind Speed Wind Dir Waves Ship Positions

Hildegaard

Last reported at 2014-Dec-19 14:33 UTC. Time now 2014-Dec-19 15:14 UTC.
Position N 51°18' W 009°15'.

Length 248 m; draft 8.6 m.

Type: Ship (hazmat cat A). MMSI: 308574000.

Date/timePositionNaut miles runAvg speedWind from/ knotsBaromVisibWave heightAir tempDewpointWater temp
2014-Dec-19 14:33N 51°18' W 009°15'4 4.3
2014-Dec-19 13:33N 51°20' W 009°09'2 2.0
2014-Dec-19 12:33N 51°21' W 009°06'2 2.1
2014-Dec-19 11:33N 51°21' W 009°02'3 2.6
2014-Dec-19 10:33N 51°22' W 008°58'3 2.8
2014-Dec-19 09:33N 51°23' W 008°54'3 3.3
2014-Dec-19 08:33N 51°24' W 008°49'4 3.6
2014-Dec-19 07:33N 51°25' W 008°44'3 3.3
2014-Dec-19 06:33N 51°27' W 008°39'3 3.5
2014-Dec-19 05:33N 51°28' W 008°34'3 2.9
2014-Dec-19 04:33N 51°30' W 008°31'7 6.5
2014-Dec-19 03:33N 51°28' W 008°40'7 6.8
2014-Dec-19 02:33N 51°26' W 008°51'7 6.9
2014-Dec-19 01:33N 51°23' W 009°01'7 6.9
2014-Dec-19 00:33N 51°21' W 009°12'7 7.0
2014-Dec-18 23:33N 51°19' W 009°22'7 6.9
2014-Dec-18 22:33N 51°17' W 009°33'6 6.3
2014-Dec-18 21:33N 51°18' W 009°43'6 6.0
2014-Dec-18 20:33N 51°19' W 009°53'3 3.2
2014-Dec-18 19:33N 51°18' W 009°57'6 5.8
2014-Dec-18 18:33N 51°15' W 009°49'6 5.5
2014-Dec-18 17:33N 51°13' W 009°41'6 5.8
2014-Dec-18 16:33N 51°10' W 009°33'6 5.6
2014-Dec-18 15:33N 51°07' W 009°25'6 6.0
2014-Dec-18 14:33N 51°04' W 009°16'5 5.2
2014-Dec-18 13:33N 51°01' W 009°09'6 5.2
2014-Dec-18 12:28N 50°58' W 009°03'44 6.2
2014-Dec-18 05:26N 50°29' W 008°11'  
2014-Dec-15 20:16N 49°35' W 000°17'0 0.6
2014-Dec-15 19:29N 49°36' W 000°17'0 0.0
2014-Dec-15 18:05N 49°36' W 000°16'0 0.0
2014-Dec-15 17:32N 49°36' W 000°16'0 0.0
2014-Dec-15 16:23N 49°36' W 000°16'0 0.0
2014-Dec-15 13:17N 49°36' W 000°16'0 0.0
2014-Dec-15 12:32N 49°35' W 000°16'0 0.0
2014-Dec-15 10:32N 49°35' W 000°16'0 0.0
2014-Dec-15 05:26N 49°35' W 000°16'0 0.1
2014-Dec-15 04:23N 49°36' W 000°16'0 0.0
2014-Dec-15 03:23N 49°36' W 000°16'0 0.0
2014-Dec-15 02:29N 49°36' W 000°16'0 0.0
2014-Dec-15 01:11N 49°36' W 000°16'0 0.0
2014-Dec-14 23:05N 49°36' W 000°16'0 0.1
2014-Dec-14 22:26N 49°36' W 000°16'0 0.0
2014-Dec-14 20:08N 49°36' W 000°17'0 0.0
2014-Dec-14 19:29N 49°36' W 000°17'0 0.0
2014-Dec-14 18:29N 49°36' W 000°17'0 0.0
2014-Dec-14 17:14N 49°36' W 000°17'0 0.1
2014-Dec-14 16:26N 49°36' W 000°17'0 0.0
2014-Dec-14 14:11N 49°36' W 000°17'0 0.0
2014-Dec-14 10:23N 49°36' W 000°17'0 0.1
2014-Dec-14 08:32N 49°36' W 000°17'0 0.0
2014-Dec-14 07:32N 49°36' W 000°17'0 0.0
2014-Dec-14 06:32N 49°36' W 000°17'0 0.1
2014-Dec-14 05:32N 49°36' W 000°17'0 0.1
2014-Dec-14 03:23N 49°35' W 000°17'0 0.0
2014-Dec-14 01:11N 49°35' W 000°17'0 0.0
2014-Dec-13 23:17N 49°35' W 000°17'0 0.1
2014-Dec-13 22:17N 49°35' W 000°17'0 0.1
2014-Dec-13 20:32N 49°35' W 000°17'0 0.0
2014-Dec-13 19:11N 49°35' W 000°17'0 0.0
2014-Dec-13 18:05N 49°35' W 000°17'0 0.3
2014-Dec-13 17:32N 49°36' W 000°17'0 0.1
2014-Dec-13 16:20N 49°36' W 000°17'0 0.3
2014-Dec-13 15:28N 49°35' W 000°17'4 4.6
2014-Dec-13 14:33N 49°34' W 000°11'1110.6
2014-Dec-13 13:33N 49°29' E 000°04'3 3.3
2014-Dec-13 12:31N 49°28' E 000°09'0 0.0
2014-Dec-13 11:25N 49°28' E 000°09'0 0.0
2014-Dec-13 10:31N 49°28' E 000°09'0 0.0
2014-Dec-13 09:31N 49°28' E 000°09'0 0.0
2014-Dec-13 08:31N 49°28' E 000°09'0 0.0
2014-Dec-13 07:31N 49°28' E 000°09'0 0.0
2014-Dec-13 06:31N 49°28' E 000°09'0 0.0
2014-Dec-13 05:31N 49°28' E 000°09'0 0.0
2014-Dec-13 04:25N 49°28' E 000°09'0 0.0
2014-Dec-13 03:31N 49°28' E 000°09'0 0.0
2014-Dec-13 02:31N 49°28' E 000°09'0 0.0
2014-Dec-13 01:31N 49°28' E 000°09'0 0.0
2014-Dec-13 00:31N 49°28' E 000°09'0 0.0
2014-Dec-12 23:31N 49°28' E 000°09'0 0.0
2014-Dec-12 22:31N 49°28' E 000°09'0 0.0
2014-Dec-12 21:31N 49°28' E 000°09'0 0.0
2014-Dec-12 20:31N 49°28' E 000°09'0 0.0
2014-Dec-12 19:31N 49°28' E 000°09'0 0.0
2014-Dec-12 18:31N 49°28' E 000°09'0 0.0
2014-Dec-12 17:28N 49°28' E 000°09'0 0.0
2014-Dec-12 16:28N 49°28' E 000°09'0 0.0
2014-Dec-12 15:31N 49°28' E 000°09'0 0.0
2014-Dec-12 14:31N 49°28' E 000°09'0 0.0
2014-Dec-12 13:31N 49°28' E 000°09'0 0.0
2014-Dec-12 12:31N 49°28' E 000°09'1 1.2
2014-Dec-12 11:33N 49°28' E 000°08'9 8.6
2014-Dec-12 10:33N 49°31' W 000°05'9 9.2
2014-Dec-12 09:33N 49°37' W 000°16'1 0.7
2014-Dec-12 08:29N 49°37' W 000°16'0 0.0
2014-Dec-12 07:32N 49°37' W 000°16'0 0.1
2014-Dec-12 06:32N 49°37' W 000°16'0 0.0
2014-Dec-12 05:32N 49°37' W 000°16'0 0.0
2014-Dec-12 04:32N 49°37' W 000°16'0 0.0
2014-Dec-12 03:26N 49°37' W 000°16'0 0.1
2014-Dec-12 02:32N 49°37' W 000°16'0 0.0
2014-Dec-12 01:32N 49°37' W 000°16'0 0.0
2014-Dec-12 00:32N 49°37' W 000°16'0 0.0
2014-Dec-11 23:32N 49°37' W 000°16'0 0.1
2014-Dec-11 22:08N 49°37' W 000°16'0 0.0
2014-Dec-11 17:23N 49°37' W 000°16'0 0.1
2014-Dec-11 16:32N 49°37' W 000°16'0 0.1
2014-Dec-11 15:26N 49°37' W 000°16'4 4.4
2014-Dec-11 14:33N 49°40' W 000°21'1 1.5
2014-Dec-11 13:33N 49°40' W 000°23'1 1.4
2014-Dec-11 12:33N 49°39' W 000°22'1 1.0
2014-Dec-11 11:32N 49°38' W 000°21'1 0.7
2014-Dec-11 10:22N 49°37' W 000°20'1 1.3
2014-Dec-11 09:32N 49°37' W 000°19'1 1.5
2014-Dec-11 08:33N 49°38' W 000°17'59 9.4
2014-Dec-11 02:13N 50°32' E 000°19'8 9.5
2014-Dec-11 01:20N 50°35' E 000°31'7 9.1
2014-Dec-11 00:33N 50°38' E 000°41'10 9.4
2014-Dec-10 23:32N 50°44' E 000°53'1210.4
2014-Dec-10 22:22N 50°51' E 001°09'1012.6
2014-Dec-10 21:34N 50°57' E 001°21'1313.3
2014-Dec-10 20:33N 51°07' E 001°36'1212.3
2014-Dec-10 19:33N 51°16' E 001°48'1110.9
2014-Dec-10 18:33N 51°26' E 001°57'10 9.9
2014-Dec-10 17:33N 51°34' E 002°07'10 9.5
2014-Dec-10 16:33N 51°41' E 002°17'  
Track history (hours):
 
Tides and Currents Weather Stations Pressure Air Temp Water Temp Dewpoint Dewpoint Depression Visibility Wind Speed Wind Dir Waves Ship Positions

Hildegaard

Last reported at 2014-Dec-19 14:33 UTC. Time now 2014-Dec-19 15:14 UTC.
Position N 51°18' W 009°15'.

Length 248 m; draft 8.6 m.

Type: Ship (hazmat cat A). MMSI: 308574000.

Date/timePositionNaut miles runAvg speedWind from/ knotsBaromVisibWave heightAir tempDewpointWater temp
2014-Dec-19 14:33N 51°18' W 009°15'4 4.3
2014-Dec-19 13:33N 51°20' W 009°09'2 2.0
2014-Dec-19 12:33N 51°21' W 009°06'2 2.1
2014-Dec-19 11:33N 51°21' W 009°02'3 2.6
2014-Dec-19 10:33N 51°22' W 008°58'3 2.8
2014-Dec-19 09:33N 51°23' W 008°54'3 3.3
2014-Dec-19 08:33N 51°24' W 008°49'4 3.6
2014-Dec-19 07:33N 51°25' W 008°44'3 3.3
2014-Dec-19 06:33N 51°27' W 008°39'3 3.5
2014-Dec-19 05:33N 51°28' W 008°34'3 2.9
2014-Dec-19 04:33N 51°30' W 008°31'7 6.5
2014-Dec-19 03:33N 51°28' W 008°40'7 6.8
2014-Dec-19 02:33N 51°26' W 008°51'7 6.9
2014-Dec-19 01:33N 51°23' W 009°01'7 6.9
2014-Dec-19 00:33N 51°21' W 009°12'7 7.0
2014-Dec-18 23:33N 51°19' W 009°22'7 6.9
2014-Dec-18 22:33N 51°17' W 009°33'6 6.3
2014-Dec-18 21:33N 51°18' W 009°43'6 6.0
2014-Dec-18 20:33N 51°19' W 009°53'3 3.2
2014-Dec-18 19:33N 51°18' W 009°57'6 5.8
2014-Dec-18 18:33N 51°15' W 009°49'6 5.5
2014-Dec-18 17:33N 51°13' W 009°41'6 5.8
2014-Dec-18 16:33N 51°10' W 009°33'6 5.6
2014-Dec-18 15:33N 51°07' W 009°25'6 6.0
2014-Dec-18 14:33N 51°04' W 009°16'5 5.2
2014-Dec-18 13:33N 51°01' W 009°09'6 5.2
2014-Dec-18 12:28N 50°58' W 009°03'44 6.2
2014-Dec-18 05:26N 50°29' W 008°11'  
2014-Dec-15 20:16N 49°35' W 000°17'0 0.6
2014-Dec-15 19:29N 49°36' W 000°17'0 0.0
2014-Dec-15 18:05N 49°36' W 000°16'0 0.0
2014-Dec-15 17:32N 49°36' W 000°16'0 0.0
2014-Dec-15 16:23N 49°36' W 000°16'0 0.0
2014-Dec-15 13:17N 49°36' W 000°16'0 0.0
2014-Dec-15 12:32N 49°35' W 000°16'0 0.0
2014-Dec-15 10:32N 49°35' W 000°16'0 0.0
2014-Dec-15 05:26N 49°35' W 000°16'0 0.1
2014-Dec-15 04:23N 49°36' W 000°16'0 0.0
2014-Dec-15 03:23N 49°36' W 000°16'0 0.0
2014-Dec-15 02:29N 49°36' W 000°16'0 0.0
2014-Dec-15 01:11N 49°36' W 000°16'0 0.0
2014-Dec-14 23:05N 49°36' W 000°16'0 0.1
2014-Dec-14 22:26N 49°36' W 000°16'0 0.0
2014-Dec-14 20:08N 49°36' W 000°17'0 0.0
2014-Dec-14 19:29N 49°36' W 000°17'0 0.0
2014-Dec-14 18:29N 49°36' W 000°17'0 0.0
2014-Dec-14 17:14N 49°36' W 000°17'0 0.1
2014-Dec-14 16:26N 49°36' W 000°17'0 0.0
2014-Dec-14 14:11N 49°36' W 000°17'0 0.0
2014-Dec-14 10:23N 49°36' W 000°17'0 0.1
2014-Dec-14 08:32N 49°36' W 000°17'0 0.0
2014-Dec-14 07:32N 49°36' W 000°17'0 0.0
2014-Dec-14 06:32N 49°36' W 000°17'0 0.1
2014-Dec-14 05:32N 49°36' W 000°17'0 0.1
2014-Dec-14 03:23N 49°35' W 000°17'0 0.0
2014-Dec-14 01:11N 49°35' W 000°17'0 0.0
2014-Dec-13 23:17N 49°35' W 000°17'0 0.1
2014-Dec-13 22:17N 49°35' W 000°17'0 0.1
2014-Dec-13 20:32N 49°35' W 000°17'0 0.0
2014-Dec-13 19:11N 49°35' W 000°17'0 0.0
2014-Dec-13 18:05N 49°35' W 000°17'0 0.3
2014-Dec-13 17:32N 49°36' W 000°17'0 0.1
2014-Dec-13 16:20N 49°36' W 000°17'0 0.3
2014-Dec-13 15:28N 49°35' W 000°17'4 4.6
2014-Dec-13 14:33N 49°34' W 000°11'1110.6
2014-Dec-13 13:33N 49°29' E 000°04'3 3.3
2014-Dec-13 12:31N 49°28' E 000°09'0 0.0
2014-Dec-13 11:25N 49°28' E 000°09'0 0.0
2014-Dec-13 10:31N 49°28' E 000°09'0 0.0
2014-Dec-13 09:31N 49°28' E 000°09'0 0.0
2014-Dec-13 08:31N 49°28' E 000°09'0 0.0
2014-Dec-13 07:31N 49°28' E 000°09'0 0.0
2014-Dec-13 06:31N 49°28' E 000°09'0 0.0
2014-Dec-13 05:31N 49°28' E 000°09'0 0.0
2014-Dec-13 04:25N 49°28' E 000°09'0 0.0
2014-Dec-13 03:31N 49°28' E 000°09'0 0.0
2014-Dec-13 02:31N 49°28' E 000°09'0 0.0
2014-Dec-13 01:31N 49°28' E 000°09'0 0.0
2014-Dec-13 00:31N 49°28' E 000°09'0 0.0
2014-Dec-12 23:31N 49°28' E 000°09'0 0.0
2014-Dec-12 22:31N 49°28' E 000°09'0 0.0
2014-Dec-12 21:31N 49°28' E 000°09'0 0.0
2014-Dec-12 20:31N 49°28' E 000°09'0 0.0
2014-Dec-12 19:31N 49°28' E 000°09'0 0.0
2014-Dec-12 18:31N 49°28' E 000°09'0 0.0
2014-Dec-12 17:28N 49°28' E 000°09'0 0.0
2014-Dec-12 16:28N 49°28' E 000°09'0 0.0
2014-Dec-12 15:31N 49°28' E 000°09'0 0.0
2014-Dec-12 14:31N 49°28' E 000°09'0 0.0
2014-Dec-12 13:31N 49°28' E 000°09'0 0.0
2014-Dec-12 12:31N 49°28' E 000°09'1 1.2
2014-Dec-12 11:33N 49°28' E 000°08'9 8.6
2014-Dec-12 10:33N 49°31' W 000°05'9 9.2
2014-Dec-12 09:33N 49°37' W 000°16'1 0.7
2014-Dec-12 08:29N 49°37' W 000°16'0 0.0
2014-Dec-12 07:32N 49°37' W 000°16'0 0.1
2014-Dec-12 06:32N 49°37' W 000°16'0 0.0
2014-Dec-12 05:32N 49°37' W 000°16'0 0.0
2014-Dec-12 04:32N 49°37' W 000°16'0 0.0
2014-Dec-12 03:26N 49°37' W 000°16'0 0.1
2014-Dec-12 02:32N 49°37' W 000°16'0 0.0
2014-Dec-12 01:32N 49°37' W 000°16'0 0.0
2014-Dec-12 00:32N 49°37' W 000°16'0 0.0
2014-Dec-11 23:32N 49°37' W 000°16'0 0.1
2014-Dec-11 22:08N 49°37' W 000°16'0 0.0
2014-Dec-11 17:23N 49°37' W 000°16'0 0.1
2014-Dec-11 16:32N 49°37' W 000°16'0 0.1
2014-Dec-11 15:26N 49°37' W 000°16'4 4.4
2014-Dec-11 14:33N 49°40' W 000°21'1 1.5
2014-Dec-11 13:33N 49°40' W 000°23'1 1.4
2014-Dec-11 12:33N 49°39' W 000°22'1 1.0
2014-Dec-11 11:32N 49°38' W 000°21'1 0.7
2014-Dec-11 10:22N 49°37' W 000°20'1 1.3
2014-Dec-11 09:32N 49°37' W 000°19'1 1.5
2014-Dec-11 08:33N 49°38' W 000°17'59 9.4
2014-Dec-11 02:13N 50°32' E 000°19'8 9.5
2014-Dec-11 01:20N 50°35' E 000°31'7 9.1
2014-Dec-11 00:33N 50°38' E 000°41'10 9.4
2014-Dec-10 23:32N 50°44' E 000°53'1210.4
2014-Dec-10 22:22N 50°51' E 001°09'1012.6
2014-Dec-10 21:34N 50°57' E 001°21'1313.3
2014-Dec-10 20:33N 51°07' E 001°36'1212.3
2014-Dec-10 19:33N 51°16' E 001°48'1110.9
2014-Dec-10 18:33N 51°26' E 001°57'10 9.9
2014-Dec-10 17:33N 51°34' E 002°07'10 9.5
2014-Dec-10 16:33N 51°41' E 002°17'  

Dump ship's entire track history